Aktualne dane pomiarowe

Uwaga, wersja testowa! Automatyczne pobieranie danych za pomocą narzędzi lub skryptów to umożliwiających jest zabronione.

Dane meteo z obszaru Polski uzyskane na podstawie depesz SYNOP pobieranych co godzinę z NWS. Najedź myszką na symbol przedstawiony w tabeli, aby uzyskać informacje co do jego znaczenia. Prosimy pamiętać, że to testowa wersja strony, która jeszcze nie jest ukończona. Stworzono również jest krótki FAQ dotyczący korzystania z tej podstrony Anomalie temperatury w chwili obecnej odniesione są do okresu referencyjnego 1951-2016. Okres ten będzie później zmieniony na 1981-2010. Kliknij ikonę aby pobrać plik CSV. Kliknij ikonę aby wygenerować mapę synoptyczną dla danego terminu.

Wybierz Datę:    

        

Olsztyn (12272)

Dane terminowe dla wybranej stacji. Kliknij datę, aby otrzymać dane z tego terminu dla wszystkich stacji.

TemperaturaZachmurzenieWiatrCiśnienieOpadyPogoda
 Data t td wb tx tn tg rh  Nt Nl Cl Cm Ch ws wd g1 g2 wx mslp ppp ch 24h 12h t ww ww w1 w2  
2019-07-07 23:00:00 12.3 11.0 11.4--- 9250.0wxwxwx3wx--31006.4 990.1 0.4---------
2019-07-07 22:00:00 12.7 10.6 11.3--- 8750.0wxwxwx2wx--21006.3 990.0 0.8---------
2019-07-07 21:00:00 13.2 10.6 11.5--- 8450.0wxwxwx3wx--31006.1 989.8 1.0---------
2019-07-07 20:00:00 13.5 9.9 11.2--- 7950.0wxwxwx2wx--21006.0 989.7 1.0---------
2019-07-07 19:00:00 13.5 11.0 11.8--- 8550.0wxwxwx2wx---1005.5 989.2 0.5---------
2019-07-07 18:00:00 13.5 11.2 11.9 18.6 13.3- 8650.0wxwxwx2wx---1005.0 988.8 0.5---wx-w1--
2019-07-07 17:00:00 13.9 10.9 11.9--- 8245.0wxwxwx2wx---1004.9 988.7 0.4---wx---
2019-07-07 16:00:00 13.3 10.5 11.4--- 8311.0wxwxwxwx6wx12--1005.0 988.7 0.8---wx---
2019-07-07 15:00:00 16.9 9.1 12.2--- 6045.0wxwxwxwx4wx121241004.3 988.3 0.3---------
2019-07-07 14:00:00 17.2 8.3 12.0--- 5635.0wxwxwxwx5wx101051004.3 988.3 0.5---------
2019-07-07 13:00:00 17.6 7.6 11.9--- 5235.0wxwxwxwx5wx11--1003.9 987.9 0.2---------
2019-07-07 12:00:00 16.8 8.0 11.7--- 5635.0wxwxwxwx5wx-1251004.0 988.0 0.7--6wx-w1--
2019-07-07 11:00:00 16.3 8.8 11.8--- 6135.0wxwxwxwx4wx9--1003.9 987.8 1.0---------
2019-07-07 10:00:00 15.8 7.8 11.1--- 5940.0wxwxwx5wx111151003.8 987.7 1.2---------
2019-07-07 09:00:00 15.2 8.0 10.9--- 6240.0wxwxwx3wx81031003.4 987.3 0.7---wx---
2019-07-07 08:00:00 15.6 7.4 10.8--- 5835.0wxwxwx3wx81031002.9 986.8 0.3---------
2019-07-07 07:00:00 15.5 7.5 10.8--- 5930.0wxwxwxwx3wx-931002.6 986.5 -0.4---------
2019-07-07 06:00:00 15.4 8.2 11.1 16.2 13.6 14 6235.0wxwxwxwx4wx9941002.7 986.6 -0.1 0.6 0.212------
2019-07-07 05:00:00 14.3 8.7 10.9--- 6930.0wxwxwxwx2wx--21002.7 986.5 0.0---------
2019-07-07 04:00:00 13.7 9.3 10.9--- 7535.0wxwxwxwx2wx-821003.1 986.9 0.0---------
2019-07-07 03:00:00 14.2 10.6 11.8--- 7940.0wxwxwx2wx-721002.9 986.7 -0.4---------
2019-07-07 02:00:00 14.8 13.0 13.5--- 8920.0wxwxwx2wx--21002.6 986.5 -0.6---------
2019-07-07 01:00:00 14.6 13.0 13.5--- 9015.0wxwxwx4wx---1003.1 986.9 -0.2---------
2019-07-07 00:00:00 14.6 12.8 13.3--- 8925.0wxwxwxwx3wx-831003.3 987.1 -0.4- 0.26wx-w1--
2019-07-06 23:00:00 15.0 13.2 13.7--- 8920.0wxwxwx3wx--31003.2 987.1 -1.0---------
2019-07-06 22:00:00 15.2 13.4 13.9--- 8925.0wxwxwx3wx--31003.2 987.1 -1.4---wx-w1--
2019-07-06 21:00:00 15.2 13.4 13.9--- 8920.0wxwxwx3wx--31003.6 987.5 -1.2---wx-w1--
2019-07-06 20:00:00 15.2 13.2 13.8--- 8820.0wxwxwx2wx--21004.2 988.1 -0.9---wx---
2019-07-06 19:00:00 15.6 13.1 13.9--- 8530.0wxwxwxwx2wx--21004.6 988.5 -1.2---wx-w1--
2019-07-06 18:00:00 16.2 13.9 14.6 19.0 14.2- 8620.0wxwxwx2wx--21004.8 988.7 -1.5- 0.412wx-w1--
2019-07-06 17:00:00 16.3 14.0 14.7--- 8640.0wxwxwxwxwx1wx--11005.1 989.0 -1.8---wx---
2019-07-06 16:00:00 15.5 13.2 13.9--- 8620.0wxwxwx1wx--11005.8 989.7 -1.5---wx-w1--
2019-07-06 15:00:00 16.0 12.4 13.6--- 7940.0wxwxwxwx1wx--11006.3 990.2 -0.9---wx-w1--
2019-07-06 14:00:00 16.3 11.7 13.3--- 7450.0wxwxwxwx2wx--21006.9 990.8 -0.9---------
2019-07-06 13:00:00 16.2 11.1 12.9--- 7245.0wxwxwx3wx--31007.3 991.2 -0.5---wx-w1--
2019-07-06 12:00:00 17.6 10.2 13.1--- 6245.0wxwxwxwx3wx-931007.2 991.1 -1.0- 0.06------
2019-07-06 11:00:00 17.4 9.6 12.7--- 6050.0wxwxwxwx2wx--21007.8 991.7 -0.7---------
2019-07-06 10:00:00 18.7 8.1 12.6--- 5040.0wxwxwxwx3wx-931007.7 991.7 -0.8---------
2019-07-06 09:00:00 18.5 7.0 12.0--- 4740.0wxwxwxwxwx4wx9941008.1 992.1 -0.3---------
2019-07-06 08:00:00 17.2 7.8 11.8--- 5435.0wxwxwxwxwx3wx-831008.5 992.4 0.0---------
2019-07-06 07:00:00 15.7 8.7 11.5--- 6345.0wxwxwxwxwx2wx--21008.7 992.5 -0.1---------
2019-07-06 06:00:00 14.2 8.2 10.6 15.9 9.0 8 6740.0wx-wxwx2wx--21008.7 992.4 -0.4 1.0 0.012------
2019-07-06 05:00:00 12.3 7.4 9.3--- 7240.0wx-wxwx2wx--21008.8 992.4 -0.5---------
2019-07-06 04:00:00 10.2 6.0 7.6--- 7550.0wx-wx2wx--21009.1 992.6 -0.6---------
2019-07-06 03:00:00 9.1 5.3 6.8--- 7750.0wx-wx3wx---1009.4 992.8 -0.6---------
2019-07-06 02:00:00 9.6 5.4 7.1--- 7550.0wx-wx3wx--31009.4 992.9 -0.4---------
2019-07-06 01:00:00 9.6 5.6 7.2--- 7650.0wx-wx3wx--31009.7 993.2 0.0---------
2019-07-06 00:00:00 10.6 5.6 7.6--- 7150.0wx-3wx--31009.9 993.4 0.1- 0.06------
9.2 ms

 

Print Friendly, PDF & Email